Time;durP1;ratioP1;P1;durP2;ratioP2;P2;SDS_P1;SDS_P2;PMS_P1;PMS_P2;Temp;Humidity;BMP_temperature;BMP_pressure;BME280_temperature;BME280_humidity;BME280_pressure;Samples;Min_cycle;Max_cycle;Signal;HPM_P1;HPM_P2
2022/11/19 00:00:12;;;;;;;5.75;3.33;;;11.00;99.90;11.10;98898.00;;;;339764;28;90992;-91
2022/11/19 00:00:24;;;;;;;5.20;3.08;;;11.00;99.90;11.20;98891.00;;;;341736;28;83602;-90
2022/11/19 00:00:36;;;;;;;5.55;3.10;;;11.00;99.90;11.20;98892.00;;;;342788;28;88068;-90
2022/11/19 00:00:48;;;;;;;7.13;3.30;;;11.00;99.90;11.20;98890.00;;;;344524;28;85007;-90
2022/11/19 00:01:09;;;;;;;7.22;3.08;;;11.00;99.90;11.00;98891.00;;;;345618;28;88716;-91
2022/11/19 00:01:26;;;;;;;7.35;3.45;;;11.00;99.90;11.10;98890.00;;;;341809;28;83460;-90
2022/11/19 00:01:38;;;;;;;5.85;3.17;;;11.00;99.90;11.20;98891.00;;;;341441;28;89906;-91
2022/11/19 00:01:49;;;;;;;7.65;2.90;;;11.00;99.90;11.30;98892.00;;;;344615;28;83174;-90
2022/11/19 00:02:02;;;;;;;7.88;2.92;;;11.00;99.90;11.30;98884.00;;;;342639;28;90020;-90
2022/11/19 00:02:16;;;;;;;6.78;3.13;;;11.00;99.90;11.40;98886.00;;;;346006;28;82382;-90
2022/11/19 00:02:28;;;;;;;5.90;3.00;;;11.00;99.90;11.40;98892.00;;;;345526;28;89814;-90
2022/11/19 00:02:40;;;;;;;4.53;2.92;;;11.00;99.90;11.40;98898.00;;;;343074;28;83427;-91
2022/11/19 00:02:55;;;;;;;5.90;3.17;;;11.00;99.90;11.40;98894.00;;;;345211;28;92476;-91
2022/11/19 00:03:06;;;;;;;6.57;3.67;;;11.00;99.90;11.40;98891.00;;;;341745;28;83662;-90
2022/11/19 00:03:19;;;;;;;6.22;3.47;;;11.00;99.90;11.30;98887.00;;;;345123;28;91331;-90
2022/11/19 00:03:33;;;;;;;5.50;2.95;;;11.00;99.90;11.20;98892.00;;;;341789;28;82507;-90
2022/11/19 00:03:45;;;;;;;5.28;2.90;;;11.10;99.90;11.10;98889.00;;;;343914;28;90553;-89
2022/11/19 00:04:06;;;;;;;4.38;2.97;;;11.00;99.90;11.20;98891.00;;;;344249;28;83996;-91
2022/11/19 00:04:18;;;;;;;4.22;2.75;;;11.00;99.90;11.40;98887.00;;;;344018;28;90420;-90
2022/11/19 00:04:30;;;;;;;4.20;2.75;;;11.00;99.90;11.30;98891.00;;;;343178;28;82619;-89
2022/11/19 00:04:42;;;;;;;4.25;2.97;;;11.00;99.90;11.20;98889.00;;;;343852;28;91078;-91
2022/11/19 00:04:54;;;;;;;4.80;3.25;;;11.00;99.90;11.20;98891.00;;;;343201;28;82466;-90
2022/11/19 00:05:06;;;;;;;4.90;3.08;;;11.00;99.90;11.10;98893.00;;;;341408;28;89890;-90
2022/11/19 00:05:18;;;;;;;4.80;2.97;;;11.00;99.90;11.00;98891.00;;;;345761;28;84586;-91
2022/11/19 00:05:30;;;;;;;4.80;3.10;;;11.00;99.90;10.90;98885.00;;;;344196;28;89528;-90
2022/11/19 00:05:45;;;;;;;4.55;2.97;;;11.00;99.90;10.90;98893.00;;;;340319;28;84558;-90
2022/11/19 00:06:05;;;;;;;4.68;2.92;;;11.00;99.90;10.80;98889.00;;;;342569;28;88397;-91
2022/11/19 00:06:19;;;;;;;4.32;3.15;;;11.00;99.90;10.80;98896.00;;;;341831;28;82910;-90
2022/11/19 00:06:31;;;;;;;5.45;3.42;;;11.00;99.90;10.80;98887.00;;;;342652;28;90411;-91
2022/11/19 00:06:43;;;;;;;8.10;3.88;;;11.00;99.90;11.00;98892.00;;;;341805;28;83352;-90
2022/11/19 00:06:54;;;;;;;7.43;3.58;;;10.90;99.90;11.10;98890.00;;;;344165;28;89273;-90
2022/11/19 00:07:06;;;;;;;6.35;3.10;;;11.00;99.90;11.10;98899.00;;;;344352;28;83490;-90
2022/11/19 00:07:18;;;;;;;4.78;3.22;;;11.00;99.90;11.10;98891.00;;;;342339;28;90583;-91
2022/11/19 00:07:30;;;;;;;5.03;3.20;;;10.90;99.90;11.00;98885.00;;;;341909;28;83576;-90
2022/11/19 00:07:42;;;;;;;4.25;2.90;;;11.00;99.90;10.90;98894.00;;;;343972;28;90856;-90
2022/11/19 00:07:54;;;;;;;3.55;2.60;;;10.90;99.90;10.90;98894.00;;;;340493;28;82314;-89
2022/11/19 00:08:06;;;;;;;3.67;2.80;;;10.90;99.90;11.00;98891.00;;;;342307;28;88465;-91
2022/11/19 00:08:19;;;;;;;4.00;2.92;;;10.90;99.90;11.00;98894.00;;;;345973;28;82421;-90
2022/11/19 00:08:31;;;;;;;4.20;2.92;;;10.90;99.90;11.00;98895.00;;;;342310;28;91251;-90
2022/11/19 00:08:43;;;;;;;4.95;3.20;;;10.90;99.90;11.00;98889.00;;;;344584;28;83704;-90
2022/11/19 00:08:55;;;;;;;4.85;2.97;;;10.90;99.90;11.00;98895.00;;;;345612;28;88957;-91
2022/11/19 00:09:09;;;;;;;5.18;2.97;;;10.90;99.90;10.90;98893.00;;;;341798;28;83366;-90
2022/11/19 00:09:21;;;;;;;6.50;3.22;;;10.90;99.90;10.80;98881.00;;;;344060;28;89825;-91
2022/11/19 00:09:33;;;;;;;6.70;3.58;;;10.90;99.90;10.80;98892.00;;;;346954;28;83319;-90
2022/11/19 00:09:45;;;;;;;5.95;3.60;;;10.90;99.90;10.80;98889.00;;;;338763;28;90592;-90
2022/11/19 00:09:57;;;;;;;5.63;3.45;;;10.90;99.90;10.80;98889.00;;;;341515;28;83598;-91
2022/11/19 00:10:09;;;;;;;5.03;3.22;;;10.90;99.90;10.70;98895.00;;;;342777;28;88653;-91
2022/11/19 00:10:21;;;;;;;7.25;3.53;;;10.90;99.90;10.80;98891.00;;;;344298;28;83675;-90
2022/11/19 00:10:37;;;;;;;7.90;3.55;;;10.90;99.90;10.80;98893.00;;;;342504;28;91541;-90
2022/11/19 00:10:48;;;;;;;6.85;3.30;;;10.80;99.90;10.80;98892.00;;;;343087;28;82595;-91
2022/11/19 00:12:54;;;;;;;5.43;3.05;;;10.80;99.90;11.00;98894.00;;;;343002;28;82552;-90
2022/11/19 00:13:06;;;;;;;4.80;3.13;;;10.80;99.90;11.10;98895.00;;;;344267;28;89380;-91
2022/11/19 00:13:18;;;;;;;4.25;3.20;;;10.80;99.90;11.20;98893.00;;;;342849;28;84202;-91
2022/11/19 00:13:30;;;;;;;4.78;3.38;;;10.80;99.90;11.10;98893.00;;;;341262;28;90269;-91
2022/11/19 00:13:42;;;;;;;4.60;3.13;;;10.80;99.90;11.00;98885.00;;;;345924;28;83205;-91
2022/11/19 00:13:54;;;;;;;4.18;3.03;;;10.80;99.90;10.80;98898.00;;;;345039;28;92341;-91
2022/11/19 00:14:08;;;;;;;4.68;2.90;;;10.80;99.90;10.70;98885.00;;;;343213;28;83390;-90
2022/11/19 00:14:20;;;;;;;4.63;2.55;;;10.80;99.90;10.70;98895.00;;;;344160;28;89597;-90
2022/11/19 00:14:33;;;;;;;4.93;2.78;;;10.80;99.90;10.90;98891.00;;;;344269;28;83560;-90
2022/11/19 00:14:45;;;;;;;5.50;3.00;;;10.80;99.90;11.10;98890.00;;;;342793;28;88631;-90
2022/11/19 00:14:57;;;;;;;4.55;2.72;;;10.80;99.90;10.90;98892.00;;;;344389;28;83326;-91
2022/11/19 00:15:09;;;;;;;4.18;3.10;;;10.80;99.90;10.80;98888.00;;;;342772;28;89857;-91
2022/11/19 00:15:21;;;;;;;4.75;3.25;;;10.80;99.90;11.00;98886.00;;;;341616;28;82635;-90
2022/11/19 00:15:34;;;;;;;4.50;3.35;;;10.80;99.90;10.90;98888.00;;;;341480;28;89524;-90
2022/11/19 00:15:46;;;;;;;5.78;3.30;;;10.80;99.90;10.80;98891.00;;;;344436;28;83979;-90
2022/11/19 00:16:10;;;;;;;6.43;3.10;;;10.80;99.90;10.60;98878.00;;;;342578;28;90433;-90
2022/11/19 00:16:21;;;;;;;6.32;3.38;;;10.80;99.90;10.60;98879.00;;;;343113;28;83408;-91
2022/11/19 00:16:34;;;;;;;5.50;3.55;;;10.70;99.90;10.80;98886.00;;;;344113;28;89667;-90
2022/11/19 00:16:47;;;;;;;4.30;3.30;;;10.70;99.90;11.00;98885.00;;;;343110;28;83376;-90
2022/11/19 00:17:00;;;;;;;3.97;2.88;;;10.70;99.90;11.10;98895.00;;;;342863;28;88182;-90
2022/11/19 00:17:12;;;;;;;5.35;2.95;;;10.70;99.90;10.90;98891.00;;;;342966;28;83358;-90
2022/11/19 00:17:24;;;;;;;6.20;2.95;;;10.70;99.90;10.90;98890.00;;;;342739;28;88896;-90
2022/11/19 00:17:36;;;;;;;6.70;2.90;;;10.70;99.90;11.00;98890.00;;;;341805;28;82493;-90
2022/11/19 00:17:48;;;;;;;7.28;3.30;;;10.70;99.90;11.20;98886.00;;;;339987;28;88086;-90
2022/11/19 00:18:03;;;;;;;6.78;3.50;;;10.70;99.90;11.00;98886.00;;;;341715;28;82588;-90
2022/11/19 00:18:15;;;;;;;5.18;2.88;;;10.80;99.90;10.90;98894.00;;;;344078;28;90687;-90
2022/11/19 00:18:27;;;;;;;6.20;2.83;;;10.80;99.90;11.00;98890.00;;;;344556;28;83347;-90
2022/11/19 00:18:39;;;;;;;6.78;3.10;;;10.80;99.90;11.10;98885.00;;;;345414;28;88401;-91
2022/11/19 00:18:51;;;;;;;5.88;3.33;;;10.80;99.90;11.00;98889.00;;;;345894;28;83444;-90
2022/11/19 00:19:03;;;;;;;5.32;3.40;;;10.80;99.90;10.90;98873.00;;;;344201;28;88106;-90
2022/11/19 00:19:15;;;;;;;5.85;3.35;;;10.80;99.90;10.80;98889.00;;;;344393;28;83225;-91
2022/11/19 00:19:27;;;;;;;4.90;3.00;;;10.80;99.90;10.90;98886.00;;;;344052;28;89513;-90
2022/11/19 00:19:39;;;;;;;4.68;2.85;;;10.80;99.90;10.80;98888.00;;;;340465;28;83361;-90
2022/11/19 00:19:51;;;;;;;4.60;2.60;;;10.70;99.90;10.80;98889.00;;;;342745;28;90106;-90
2022/11/19 00:20:03;;;;;;;4.75;2.50;;;10.70;99.90;10.80;98881.00;;;;344343;28;83249;-90
2022/11/19 00:20:16;;;;;;;6.18;2.28;;;10.70;99.90;10.80;98890.00;;;;343822;28;89551;-90
2022/11/19 00:20:28;;;;;;;4.78;2.22;;;10.70;99.90;11.00;98886.00;;;;344522;28;83386;-90
2022/11/19 00:20:40;;;;;;;2.80;2.10;;;10.70;99.90;11.00;98884.00;;;;344033;28;89041;-90
2022/11/19 00:20:54;;;;;;;2.90;1.98;;;10.80;99.90;10.80;98888.00;;;;341858;28;82304;-91
2022/11/19 00:21:11;;;;;;;3.63;2.17;;;10.70;99.90;11.00;98887.00;;;;342856;28;87075;-91
2022/11/19 00:21:22;;;;;;;4.15;2.10;;;10.70;99.90;11.00;98889.00;;;;345195;28;83606;-91
2022/11/19 00:21:34;;;;;;;3.80;1.90;;;10.80;99.90;11.00;98886.00;;;;345524;28;89532;-91
2022/11/19 00:21:47;;;;;;;3.97;1.70;;;10.80;99.90;10.90;98883.00;;;;344540;28;83485;-91
2022/11/19 00:21:59;;;;;;;3.63;1.95;;;10.70;99.90;10.80;98888.00;;;;343792;28;89571;-91
2022/11/19 00:22:11;;;;;;;3.42;2.25;;;10.80;99.90;10.70;98890.00;;;;343140;28;83374;-91
2022/11/19 00:22:22;;;;;;;4.65;2.53;;;10.70;99.90;10.80;98888.00;;;;338593;28;91679;-90
2022/11/19 00:22:34;;;;;;;4.43;2.13;;;10.70;99.90;10.90;98877.00;;;;343096;28;83640;-90
2022/11/19 00:22:51;;;;;;;4.82;2.38;;;10.70;99.90;11.00;98884.00;;;;343758;28;90122;-90
2022/11/19 00:23:03;;;;;;;3.85;2.03;;;10.70;99.90;11.00;98893.00;;;;342888;28;82564;-90
2022/11/19 00:23:15;;;;;;;4.40;1.83;;;10.80;99.90;10.90;98886.00;;;;342581;28;91134;-90
2022/11/19 00:23:27;;;;;;;4.90;2.10;;;10.80;99.90;10.90;98882.00;;;;344287;28;83146;-90
2022/11/19 00:23:39;;;;;;;4.28;2.00;;;10.70;99.90;11.10;98887.00;;;;342769;28;89759;-91
2022/11/19 00:23:54;;;;;;;4.72;1.95;;;10.70;99.90;11.10;98880.00;;;;339896;28;82386;-89
2022/11/19 00:24:06;;;;;;;5.57;2.20;;;10.70;99.90;11.20;98885.00;;;;341408;28;88768;-90
2022/11/19 00:24:18;;;;;;;5.05;2.40;;;10.80;99.90;11.10;98884.00;;;;343170;28;82835;-90
2022/11/19 00:24:30;;;;;;;4.30;2.40;;;10.80;99.90;11.10;98880.00;;;;340030;28;89277;-89
2022/11/19 00:24:42;;;;;;;4.00;2.22;;;10.80;99.90;11.10;98881.00;;;;342977;28;83782;-90
2022/11/19 00:24:54;;;;;;;4.30;2.22;;;10.80;99.90;11.10;98881.00;;;;344194;28;86911;-91
2022/11/19 00:25:06;;;;;;;4.15;2.40;;;10.80;99.90;11.10;98877.00;;;;344508;28;83308;-90
2022/11/19 00:25:19;;;;;;;3.40;2.25;;;10.80;99.90;11.00;98888.00;;;;341373;28;88298;-90
2022/11/19 00:25:31;;;;;;;4.43;2.60;;;10.80;99.90;11.00;98885.00;;;;344533;28;82426;-90
2022/11/19 00:25:43;;;;;;;4.85;2.50;;;10.80;99.90;10.80;98882.00;;;;342832;28;87755;-90
2022/11/19 00:25:55;;;;;;;4.63;2.30;;;10.80;99.90;10.90;98888.00;;;;341751;28;82268;-90
2022/11/19 00:26:09;;;;;;;3.63;2.00;;;10.80;99.90;11.00;98891.00;;;;342731;28;89571;-91
2022/11/19 00:26:21;;;;;;;3.50;1.70;;;10.80;99.90;11.00;98885.00;;;;344446;28;82689;-90
2022/11/19 00:26:33;;;;;;;3.60;1.90;;;10.80;99.90;10.90;98878.00;;;;342580;28;91266;-90
2022/11/19 00:26:45;;;;;;;3.70;2.15;;;10.80;99.90;10.80;98885.00;;;;342892;28;85090;-91
2022/11/19 00:26:57;;;;;;;4.18;2.32;;;10.80;99.90;10.80;98891.00;;;;342694;28;89964;-90
2022/11/19 00:27:09;;;;;;;5.03;2.22;;;10.70;99.90;10.80;98883.00;;;;343106;28;83407;-91
2022/11/19 00:27:21;;;;;;;4.82;2.47;;;10.70;99.90;10.80;98882.00;;;;341244;28;90087;-90
2022/11/19 00:27:32;;;;;;;5.30;2.45;;;10.70;99.90;10.90;98887.00;;;;343118;28;83493;-90
2022/11/19 00:27:45;;;;;;;5.15;2.03;;;10.70;99.90;10.70;98890.00;;;;342812;28;88221;-91
2022/11/19 00:27:57;;;;;;;4.50;1.98;;;10.70;99.90;10.70;98883.00;;;;342517;28;83562;-90
2022/11/19 00:28:09;;;;;;;3.50;2.25;;;10.70;99.90;10.60;98879.00;;;;340024;28;92398;-90
2022/11/19 00:28:21;;;;;;;3.15;2.10;;;10.70;99.90;10.60;98886.00;;;;340422;28;83579;-90
2022/11/19 00:28:32;;;;;;;3.20;1.98;;;10.70;99.90;10.60;98888.00;;;;342505;28;90878;-90
2022/11/19 00:28:44;;;;;;;3.60;2.00;;;10.70;99.90;10.80;98883.00;;;;344463;28;83390;-90
2022/11/19 00:28:56;;;;;;;3.97;2.30;;;10.70;99.90;10.70;98884.00;;;;342750;28;89852;-91
2022/11/19 00:29:12;;;;;;;4.03;2.53;;;10.70;99.90;10.70;98887.00;;;;341612;28;83602;-90
2022/11/19 00:29:28;;;;;;;6.20;3.17;;;10.60;99.90;10.60;98886.00;;;;341138;28;90042;-91
2022/11/19 00:29:40;;;;;;;5.97;2.83;;;10.60;99.90;10.50;98889.00;;;;341788;28;82637;-90
2022/11/19 00:29:52;;;;;;;4.35;2.58;;;10.60;99.90;10.40;98887.00;;;;340968;28;90545;-91
2022/11/19 00:30:06;;;;;;;4.43;2.40;;;10.60;99.90;10.50;98895.00;;;;339044;28;83542;-90
2022/11/19 00:30:36;;;;;;;5.30;2.47;;;10.60;99.90;10.70;98889.00;;;;340121;28;89992;-91
2022/11/19 00:31:11;;;;;;;3.63;2.20;;;10.60;99.90;10.90;98894.00;;;;341442;28;83583;-90
2022/11/19 00:31:23;;;;;;;3.85;2.45;;;10.60;99.90;10.90;98889.00;;;;342496;28;89250;-90
2022/11/19 00:31:36;;;;;;;4.43;2.60;;;10.60;99.90;10.80;98884.00;;;;343085;28;83373;-90
2022/11/19 00:31:48;;;;;;;5.15;2.67;;;10.60;99.90;10.80;98891.00;;;;344073;28;89565;-90
2022/11/19 00:32:00;;;;;;;4.10;2.70;;;10.60;99.90;10.70;98888.00;;;;340378;28;83680;-91
2022/11/19 00:32:12;;;;;;;3.92;2.83;;;10.60;99.90;10.70;98884.00;;;;344107;28;90120;-90
2022/11/19 00:32:23;;;;;;;3.78;2.80;;;10.60;99.90;10.60;98895.00;;;;343181;28;83173;-89
2022/11/19 00:32:35;;;;;;;4.32;2.53;;;10.60;99.90;10.50;98888.00;;;;342470;28;89392;-90
2022/11/19 00:32:47;;;;;;;4.70;2.70;;;10.60;99.90;10.50;98887.00;;;;344564;28;83273;-90
2022/11/19 00:32:59;;;;;;;4.47;2.75;;;10.60;99.90;10.50;98891.00;;;;342453;28;90837;-90
2022/11/19 00:33:11;;;;;;;4.93;2.72;;;10.60;99.90;10.50;98891.00;;;;342857;28;83342;-90
2022/11/19 00:33:23;;;;;;;4.65;2.58;;;10.60;99.90;10.60;98883.00;;;;344087;28;90603;-90
2022/11/19 00:33:36;;;;;;;4.47;2.70;;;10.60;99.90;10.70;98889.00;;;;341803;28;83492;-90
2022/11/19 00:33:49;;;;;;;6.05;3.13;;;10.60;99.90;10.90;98888.00;;;;342763;28;89449;-90
2022/11/19 00:34:01;;;;;;;5.95;2.92;;;10.60;99.90;11.00;98886.00;;;;343120;28;83454;-91
2022/11/19 00:34:13;;;;;;;5.25;2.70;;;10.60;99.90;10.90;98890.00;;;;341467;28;88103;-90
2022/11/19 00:34:25;;;;;;;4.80;2.58;;;10.60;99.90;10.80;98895.00;;;;341709;28;83378;-90
2022/11/19 00:34:37;;;;;;;4.03;2.42;;;10.60;99.90;10.60;98890.00;;;;342340;28;92535;-90
2022/11/19 00:34:49;;;;;;;4.68;2.50;;;10.60;99.90;10.50;98880.00;;;;345646;28;83873;-90
2022/11/19 00:35:00;;;;;;;5.75;2.90;;;10.60;99.90;10.60;98887.00;;;;342504;28;90842;-90
2022/11/19 00:35:12;;;;;;;5.57;2.78;;;10.60;99.90;10.70;98888.00;;;;344164;28;83459;-91
2022/11/19 00:35:24;;;;;;;4.60;2.92;;;10.60;99.90;10.90;98873.00;;;;341056;28;92397;-90
2022/11/19 00:35:36;;;;;;;3.97;2.42;;;10.60;99.90;11.00;98886.00;;;;345838;28;83547;-90
2022/11/19 00:35:48;;;;;;;4.28;2.58;;;10.60;99.90;11.00;98888.00;;;;342776;28;88620;-90
2022/11/19 00:36:00;;;;;;;4.47;2.60;;;10.60;99.90;10.70;98880.00;;;;342779;28;83679;-90
2022/11/19 00:36:13;;;;;;;5.03;2.92;;;10.60;99.90;10.60;98882.00;;;;341403;28;89293;-90
2022/11/19 00:36:25;;;;;;;5.95;3.00;;;10.60;99.90;10.60;98878.00;;;;343177;28;83516;-90
2022/11/19 00:36:37;;;;;;;6.30;3.28;;;10.60;99.90;10.70;98880.00;;;;342679;28;89558;-91
2022/11/19 00:36:49;;;;;;;5.45;3.15;;;10.60;99.90;10.80;98883.00;;;;343046;28;83237;-89
2022/11/19 00:37:01;;;;;;;3.50;2.72;;;10.60;99.90;10.80;98882.00;;;;344110;28;88400;-90
2022/11/19 00:37:13;;;;;;;3.60;2.70;;;10.60;99.90;10.70;98880.00;;;;343080;28;83490;-90
2022/11/19 00:37:25;;;;;;;5.13;3.03;;;10.60;99.90;10.70;98882.00;;;;342355;28;88534;-91
2022/11/19 00:37:37;;;;;;;5.78;3.10;;;10.60;99.90;10.70;98881.00;;;;343798;28;82640;-90
2022/11/19 00:37:49;;;;;;;5.72;2.70;;;10.60;99.90;10.70;98877.00;;;;344123;28;88328;-91
2022/11/19 00:38:00;;;;;;;6.90;2.60;;;10.60;99.90;10.80;98882.00;;;;341519;28;83237;-90
2022/11/19 00:38:12;;;;;;;4.60;2.17;;;10.60;99.90;10.60;98878.00;;;;344025;28;89618;-90
2022/11/19 00:38:24;;;;;;;3.45;2.20;;;10.60;99.90;10.50;98886.00;;;;345855;28;83332;-90
2022/11/19 00:38:36;;;;;;;4.60;2.75;;;10.60;99.90;10.50;98879.00;;;;345401;28;88646;-90
2022/11/19 00:38:48;;;;;;;6.07;3.00;;;10.60;99.90;10.60;98882.00;;;;342949;28;83537;-90
2022/11/19 00:39:00;;;;;;;5.47;2.70;;;10.60;99.90;10.60;98882.00;;;;345236;28;90698;-90
2022/11/19 00:39:12;;;;;;;4.63;2.60;;;10.50;99.90;10.60;98881.00;;;;347143;28;83165;-90
2022/11/19 00:39:24;;;;;;;4.90;2.80;;;10.60;99.90;10.60;98872.00;;;;341121;28;93581;-90
2022/11/19 00:39:36;;;;;;;5.88;2.83;;;10.50;99.90;10.60;98875.00;;;;343038;28;84831;-91
2022/11/19 00:39:47;;;;;;;5.55;2.55;;;10.50;99.90;10.60;98887.00;;;;341460;28;88124;-90
2022/11/19 00:40:00;;;;;;;5.38;2.80;;;10.50;99.90;10.70;98884.00;;;;342944;28;83754;-91
2022/11/19 00:40:12;;;;;;;4.97;2.75;;;10.50;99.90;10.70;98885.00;;;;342759;28;88918;-90
2022/11/19 00:40:24;;;;;;;4.40;2.42;;;10.50;99.90;10.80;98885.00;;;;342943;28;84050;-90
2022/11/19 00:40:36;;;;;;;3.72;2.20;;;10.60;99.90;10.90;98876.00;;;;344038;28;89756;-91
2022/11/19 00:40:48;;;;;;;4.03;2.22;;;10.60;99.90;10.80;98875.00;;;;344507;28;83408;-90
2022/11/19 00:41:00;;;;;;;4.38;2.13;;;10.60;99.90;10.70;98889.00;;;;339818;28;92216;-91
2022/11/19 00:41:11;;;;;;;3.97;2.20;;;10.50;99.90;10.80;98882.00;;;;344192;28;83929;-90
2022/11/19 00:41:23;;;;;;;5.22;2.42;;;10.60;99.90;10.90;98886.00;;;;342608;28;88880;-90
2022/11/19 00:41:35;;;;;;;5.53;2.55;;;10.60;99.90;11.00;98877.00;;;;344203;28;83412;-90
2022/11/19 00:41:47;;;;;;;5.55;2.50;;;10.60;99.90;11.00;98877.00;;;;342489;28;90595;-90
2022/11/19 00:41:59;;;;;;;5.10;2.45;;;10.60;99.90;10.70;98879.00;;;;340275;28;85511;-90
2022/11/19 00:42:11;;;;;;;5.75;2.55;;;10.60;99.90;10.50;98882.00;;;;342755;28;88293;-91
2022/11/19 00:42:23;;;;;;;5.75;2.60;;;10.60;99.90;10.70;98878.00;;;;340399;28;83494;-90
2022/11/19 00:42:34;;;;;;;4.88;2.28;;;10.60;99.90;10.80;98884.00;;;;341437;28;88296;-90
2022/11/19 00:43:45;;;;;;;4.03;2.08;;;10.60;99.90;10.90;98874.00;;;;342931;28;83366;-90
2022/11/19 00:43:49;;;;;;;4.72;1.65;;;10.60;99.90;10.90;98880.00;;;;342952;28;83396;-90
2022/11/19 00:44:01;;;;;;;5.53;1.88;;;10.60;99.90;11.00;98879.00;;;;342683;28;88884;-90
2022/11/19 00:44:12;;;;;;;4.65;1.55;;;10.60;99.90;11.00;98883.00;;;;342900;28;83639;-91
2022/11/19 00:44:24;;;;;;;3.08;1.10;;;10.60;99.90;11.10;98878.00;;;;342754;28;89998;-90
2022/11/19 00:44:36;;;;;;;2.30;1.02;;;10.60;99.90;10.80;98887.00;;;;346872;28;82930;-91
2022/11/19 00:44:48;;;;;;;2.15;1.10;;;10.60;99.90;10.80;98885.00;;;;342713;28;90197;-90
2022/11/19 00:45:00;;;;;;;3.00;1.40;;;10.60;99.90;10.70;98879.00;;;;345664;28;83436;-90
2022/11/19 00:45:12;;;;;;;3.13;1.52;;;10.60;99.90;10.80;98887.00;;;;344033;28;88639;-90
2022/11/19 00:45:24;;;;;;;3.40;1.73;;;10.60;99.90;10.90;98887.00;;;;340411;28;84763;-90
2022/11/19 00:45:35;;;;;;;3.08;1.60;;;10.60;99.90;10.80;98878.00;;;;341406;28;89855;-90
2022/11/19 00:45:49;;;;;;;2.88;1.30;;;10.60;99.90;10.50;98887.00;;;;341701;28;83799;-90
2022/11/19 00:46:00;;;;;;;2.63;1.25;;;10.60;99.90;10.50;98877.00;;;;342056;28;88206;-90
2022/11/19 00:46:26;;;;;;;2.22;1.00;;;10.50;99.90;10.80;98876.00;;;;341708;28;83231;-90
2022/11/19 00:46:38;;;;;;;3.10;1.40;;;10.50;99.90;10.70;98881.00;;;;343798;28;89256;-90
2022/11/19 00:46:50;;;;;;;3.17;1.45;;;10.60;99.90;10.80;98879.00;;;;341755;28;83455;-90
2022/11/19 00:47:02;;;;;;;2.97;1.42;;;10.50;99.90;10.80;98886.00;;;;341093;28;92310;-90
2022/11/19 00:47:13;;;;;;;2.67;1.10;;;10.60;99.90;10.80;98886.00;;;;343091;28;82469;-90
2022/11/19 00:47:25;;;;;;;4.45;1.20;;;10.50;99.90;10.70;98878.00;;;;343434;28;88598;-90
2022/11/19 00:47:37;;;;;;;5.93;1.50;;;10.60;99.90;10.60;98887.00;;;;341496;28;83473;-91
2022/11/19 00:47:49;;;;;;;5.20;1.52;;;10.60;99.90;10.70;98884.00;;;;341488;28;88748;-90
2022/11/19 00:48:01;;;;;;;2.45;1.00;;;10.50;99.90;10.80;98875.00;;;;341818;28;83318;-90
2022/11/19 00:48:13;;;;;;;2.22;1.00;;;10.50;99.90;10.70;98882.00;;;;341305;28;90213;-91
2022/11/19 00:48:25;;;;;;;2.45;1.17;;;10.50;99.90;10.60;98878.00;;;;340426;28;82435;-91
2022/11/19 00:48:38;;;;;;;2.95;1.17;;;10.50;99.90;10.70;98883.00;;;;342711;28;88656;-90
2022/11/19 00:48:52;;;;;;;3.08;1.13;;;10.50;99.90;10.90;98875.00;;;;341824;28;83406;-90
2022/11/19 00:49:03;;;;;;;3.00;0.93;;;10.60;99.90;10.90;98877.00;;;;343838;28;91174;-89
2022/11/19 00:49:15;;;;;;;2.28;0.73;;;10.50;99.90;10.80;98884.00;;;;343103;28;82564;-90
2022/11/19 00:49:27;;;;;;;3.55;1.35;;;10.60;99.90;10.50;98881.00;;;;343886;28;91153;-90
2022/11/19 00:49:39;;;;;;;3.50;1.60;;;10.50;99.90;10.70;98884.00;;;;343129;28;82471;-90
2022/11/19 00:49:51;;;;;;;2.70;1.20;;;10.50;99.90;10.50;98882.00;;;;339766;28;89092;-90
2022/11/19 00:50:03;;;;;;;2.65;1.05;;;10.50;99.90;10.30;98879.00;;;;342788;28;83478;-90
2022/11/19 00:50:15;;;;;;;2.55;1.10;;;10.50;99.90;10.40;98884.00;;;;344995;28;93518;-90
2022/11/19 00:50:26;;;;;;;1.77;0.95;;;10.50;99.90;10.50;98877.00;;;;341542;28;82664;-90
2022/11/19 00:50:39;;;;;;;1.98;0.82;;;10.50;99.90;10.60;98885.00;;;;342371;28;91010;-91
2022/11/19 00:50:50;;;;;;;2.15;0.93;;;10.50;99.90;10.70;98876.00;;;;344208;28;83389;-90
2022/11/19 00:51:02;;;;;;;2.50;1.02;;;10.50;99.90;10.60;98880.00;;;;341358;28;88415;-89
2022/11/19 00:51:15;;;;;;;3.10;1.08;;;10.50;99.90;10.50;98875.00;;;;344435;28;82401;-89
2022/11/19 00:51:28;;;;;;;3.28;1.20;;;10.50;99.90;10.70;98879.00;;;;345479;28;89875;-89
2022/11/19 00:51:40;;;;;;;2.45;1.10;;;10.50;99.90;10.70;98882.00;;;;343171;28;83350;-90
2022/11/19 00:51:54;;;;;;;2.13;1.00;;;10.50;99.90;10.80;98887.00;;;;339941;28;89928;-90
2022/11/19 00:52:05;;;;;;;1.90;0.75;;;10.50;99.90;10.80;98883.00;;;;344570;28;83117;-90
2022/11/19 00:52:17;;;;;;;3.47;0.80;;;10.50;99.90;10.60;98881.00;;;;341011;28;91608;-90
2022/11/19 00:52:29;;;;;;;4.10;0.80;;;10.50;99.90;10.70;98879.00;;;;341764;28;83251;-90
2022/11/19 00:52:41;;;;;;;5.13;0.98;;;10.50;99.90;10.70;98879.00;;;;340117;28;88516;-91
2022/11/19 00:52:53;;;;;;;4.25;0.90;;;10.50;99.90;10.80;98876.00;;;;343165;28;83238;-90
2022/11/19 00:53:04;;;;;;;4.25;0.90;;;10.50;99.90;10.70;98875.00;;;;342823;28;88231;-90
2022/11/19 00:53:16;;;;;;;2.22;0.60;;;10.50;99.90;10.70;98884.00;;;;342768;28;84711;-91
2022/11/19 00:53:28;;;;;;;2.53;0.63;;;10.50;99.90;10.80;98875.00;;;;343729;28;90766;-90
2022/11/19 00:53:40;;;;;;;3.08;0.70;;;10.50;99.90;10.80;98882.00;;;;341596;28;82728;-90
2022/11/19 00:53:52;;;;;;;2.67;0.75;;;10.50;99.90;10.70;98879.00;;;;342500;28;89908;-90
2022/11/19 00:54:04;;;;;;;2.05;0.75;;;10.50;99.90;10.70;98881.00;;;;341487;28;83465;-91
2022/11/19 00:54:16;;;;;;;3.38;0.90;;;10.50;99.90;10.60;98877.00;;;;345071;28;90219;-90
2022/11/19 00:54:27;;;;;;;4.93;1.10;;;10.50;99.90;10.70;98873.00;;;;344478;28;83485;-90
2022/11/19 00:54:39;;;;;;;5.45;1.27;;;10.50;99.90;10.60;98877.00;;;;342412;28;91263;-90
2022/11/19 00:54:51;;;;;;;3.50;1.15;;;10.50;99.90;10.80;98879.00;;;;344465;28;83479;-90
2022/11/19 00:55:04;;;;;;;3.50;0.80;;;10.50;99.90;10.70;98879.00;;;;342417;28;91343;-90
2022/11/19 00:55:15;;;;;;;5.20;1.00;;;10.50;99.90;10.80;98883.00;;;;344388;28;82417;-90
2022/11/19 00:55:27;;;;;;;4.57;0.95;;;10.50;99.90;10.70;98876.00;;;;344099;28;87694;-90
2022/11/19 00:55:39;;;;;;;3.15;0.70;;;10.50;99.90;10.70;98871.00;;;;343139;28;83288;-90
2022/11/19 00:55:51;;;;;;;3.22;0.93;;;10.50;99.90;10.60;98874.00;;;;344051;28;90137;-89
2022/11/19 00:56:08;;;;;;;3.08;1.10;;;10.50;99.90;10.70;98873.00;;;;343155;28;83501;-90
2022/11/19 00:56:21;;;;;;;3.03;1.15;;;10.50;99.90;10.80;98872.00;;;;341137;28;92030;-90
2022/11/19 00:56:33;;;;;;;3.78;1.27;;;10.50;99.90;10.70;98869.00;;;;342796;28;83948;-91
2022/11/19 00:56:45;;;;;;;4.20;1.30;;;10.50;99.90;10.50;98868.00;;;;342697;28;90188;-90
2022/11/19 00:56:57;;;;;;;4.32;1.33;;;10.50;99.90;10.60;98877.00;;;;341735;28;83481;-90
2022/11/19 00:57:09;;;;;;;2.50;0.88;;;10.50;99.90;10.50;98872.00;;;;339726;28;90861;-90
2022/11/19 00:57:21;;;;;;;2.08;0.95;;;10.50;99.90;10.60;98874.00;;;;342884;28;82637;-89
2022/11/19 00:57:32;;;;;;;1.92;0.80;;;10.40;99.90;10.70;98873.00;;;;343858;28;90742;-90
2022/11/19 00:57:44;;;;;;;2.22;0.80;;;10.50;99.90;10.80;98864.00;;;;341722;28;83582;-91
2022/11/19 00:57:56;;;;;;;2.45;0.90;;;10.50;99.90;10.80;98880.00;;;;343723;28;91098;-90
2022/11/19 00:58:08;;;;;;;2.80;0.98;;;10.50;99.90;10.90;98873.00;;;;342917;28;83608;-91
2022/11/19 00:58:20;;;;;;;2.97;0.85;;;10.50;99.90;10.90;98869.00;;;;342392;28;93335;-90
2022/11/19 00:58:31;;;;;;;2.63;0.88;;;10.50;99.90;10.90;98869.00;;;;340178;28;82573;-90
2022/11/19 00:58:43;;;;;;;2.20;0.70;;;10.60;99.90;10.80;98878.00;;;;340468;28;88958;-90
2022/11/19 00:58:55;;;;;;;1.83;0.60;;;10.50;99.90;10.80;98869.00;;;;344249;28;83239;-89
2022/11/19 00:59:07;;;;;;;2.05;0.65;;;10.50;99.90;10.70;98876.00;;;;342585;28;90779;-90
2022/11/19 00:59:19;;;;;;;1.80;0.70;;;10.60;99.90;10.80;98869.00;;;;344119;28;84614;-90